CSCL Dalian — VRBH4 — position and weather

sailwx.info

Track history (hours):
 
Tides and Currents Weather Stations Pressure Air Temp Water Temp Dewpoint Dewpoint Depression Visibility Wind Speed Wind Dir Waves Ship Positions

CSCL Dalian

Last reported at 2017-Mar-27 06:00 UTC. Time now 2017-Mar-27 14:32 UTC.
Position N 32°18' W 054°36'.

Length 259.8 m; ; draft 11 m.

Type: Cargo ship. MMSI: 477014600.

Wind from 320 at 10 knots

Barometer 1023.3 mb
Air temperature 16.0 ° C
Dewpoint 12.4 ° C
Water temperature 14.0 ° C

Date/timePositionNaut miles runAvg speedWind from/ knotsBaromVisibWave heightAir tempDewpointWater temp
2017-Mar-27 06:00N 32°18' W 054°36'4113.7 320 / 101023.3 16.012.414.0
2017-Mar-27 03:00N 32°12' W 053°48'4615.4 330 / 101025.3 16.014.315.0
2017-Mar-27 00:00N 32°06' W 052°54'9716.1 320 / 181025.3 5.4 14.012.2
2017-Mar-26 18:00N 32°06' W 051°00'8213.6 270 / 51024.310.8 24.021.022.0
2017-Mar-26 12:00N 32°12' W 049°24'17314.4 270 / 101025.310.8 18.016.3
2017-Mar-26 00:00N 32°24' W 046°00'30514.5 050 / 131026.3 5.4 16.012.4
2017-Mar-25 03:00N 32°54' W 040°00'10 5.0 110 / 121024.3 18.014.6
2017-Mar-25 01:00N 32°54' W 039°48'22217.1 140 / 141026.310.8 17.013.5
2017-Mar-24 12:00N 33°12' W 035°24'63317.6 260 / 101030.310.8 22.018.9
2017-Mar-23 00:00N 34°30' W 022°48'21821.8 310 / 161030.3
2017-Mar-22 14:00N 35°24' W 018°30'44417.1 350 / 141023.310.8 17.015.318.0
2017-Mar-21 12:00N 40°24' W 011°36'42517.7 360 / 141025.310.8
2017-Mar-20 12:00N 46°48' W 007°24'21815.9 240 / 251012.310.8 10.0 7.911.0
2017-Mar-19 22:18N 49°37' W 003°57'1216.0
2017-Mar-19 21:32N 49°43' W 003°40'1616.3
2017-Mar-19 20:33N 49°51' W 003°19'1716.8
2017-Mar-19 19:33N 49°58' W 002°55'3617.7
2017-Mar-19 17:33N 50°00' W 001°60'1918.8
2017-Mar-19 16:34N 49°53' W 001°33'1918.5
2017-Mar-19 15:33N 49°46' W 001°06'1717.3
2017-Mar-19 14:33N 49°40' W 000°41'1716.6
2017-Mar-19 13:34N 49°35' W 000°17'1313.4
2017-Mar-19 12:33N 49°30' E 000°02'5 4.6
2017-Mar-19 11:32N 49°28' E 000°09'0 0.0
2017-Mar-19 10:32N 49°28' E 000°09'0 0.0
2017-Mar-19 09:32N 49°28' E 000°09'0 0.0
2017-Mar-19 08:32N 49°28' E 000°09'0 0.0
2017-Mar-19 07:32N 49°28' E 000°09'0 0.0
2017-Mar-19 06:32N 49°28' E 000°09'0 0.0
2017-Mar-19 05:32N 49°28' E 000°09'0 0.0
2017-Mar-19 04:32N 49°28' E 000°09'0 0.0
2017-Mar-19 03:32N 49°28' E 000°09'0 0.0
2017-Mar-19 02:32N 49°28' E 000°09'0 0.0
2017-Mar-19 01:32N 49°28' E 000°09'0 0.0
2017-Mar-19 00:32N 49°28' E 000°09'0 0.0
2017-Mar-18 23:32N 49°28' E 000°09'0 0.0
2017-Mar-18 22:32N 49°28' E 000°09'0 0.0
2017-Mar-18 21:32N 49°28' E 000°09'0 0.0
2017-Mar-18 20:32N 49°28' E 000°09'0 0.0
2017-Mar-18 19:32N 49°28' E 000°09'0 0.0
2017-Mar-18 18:32N 49°28' E 000°09'0 0.0
2017-Mar-18 17:32N 49°28' E 000°09'0 0.0
2017-Mar-18 16:32N 49°28' E 000°09'0 0.0
2017-Mar-18 15:32N 49°28' E 000°09'0 0.0
2017-Mar-18 14:33N 49°28' E 000°09'0 0.0
2017-Mar-18 13:33N 49°28' E 000°09'2 1.8
2017-Mar-18 12:33N 49°29' E 000°06'9 9.5
2017-Mar-18 11:33N 49°34' W 000°06'9 8.9
2017-Mar-18 10:33N 49°42' W 000°08'1010.1
2017-Mar-18 09:33N 49°52' W 000°08'1010.2
2017-Mar-18 08:33N 50°03' W 000°06'1110.6
2017-Mar-18 07:33N 50°13' W 000°07'1010.3
2017-Mar-18 06:33N 50°23' W 000°06'9 9.5
2017-Mar-18 05:33N 50°30' E 000°04'1010.3
2017-Mar-18 04:33N 50°34' E 000°19'10 9.3
2017-Mar-18 03:30N 50°36' E 000°34'9 9.1
2017-Mar-18 02:33N 50°41' E 000°45'9 9.0
2017-Mar-18 01:33N 50°46' E 000°57'9 8.7
2017-Mar-18 00:31N 50°51' E 001°09'612.1
2017-Mar-18 00:00N 50°54' E 001°18'3 6.6 240 / 201010.3 5.4 6.0 3.6
2017-Mar-17 23:33N 50°57' E 001°20'1111.1
2017-Mar-17 22:33N 51°04' E 001°32'1211.8
2017-Mar-17 21:33N 51°13' E 001°45'1110.9
2017-Mar-17 20:33N 51°23' E 001°54'1010.0
2017-Mar-17 19:34N 51°31' E 002°03'9 9.5
2017-Mar-17 18:33N 51°38' E 002°13'9 9.5
2017-Mar-17 17:33N 51°45' E 002°23'9011.1
2017-Mar-17 09:30N 52°55' E 003°55'1616.4
2017-Mar-17 08:31N 53°06' E 004°15'3015.2
2017-Mar-17 06:32N 53°30' E 004°44'  
Track history (hours):
 
Tides and Currents Weather Stations Pressure Air Temp Water Temp Dewpoint Dewpoint Depression Visibility Wind Speed Wind Dir Waves Ship Positions

CSCL Dalian

Last reported at 2017-Mar-27 06:00 UTC. Time now 2017-Mar-27 14:32 UTC.
Position N 32°18' W 054°36'.

Length 259.8 m; ; draft 11 m.

Type: Cargo ship. MMSI: 477014600.

Wind from 320 at 10 knots

Barometer 1023.3 mb
Air temperature 16.0 ° C
Dewpoint 12.4 ° C
Water temperature 14.0 ° C

Date/timePositionNaut miles runAvg speedWind from/ knotsBaromVisibWave heightAir tempDewpointWater temp
2017-Mar-27 06:00N 32°18' W 054°36'4113.7 320 / 101023.3 16.012.414.0
2017-Mar-27 03:00N 32°12' W 053°48'4615.4 330 / 101025.3 16.014.315.0
2017-Mar-27 00:00N 32°06' W 052°54'9716.1 320 / 181025.3 5.4 14.012.2
2017-Mar-26 18:00N 32°06' W 051°00'8213.6 270 / 51024.310.8 24.021.022.0
2017-Mar-26 12:00N 32°12' W 049°24'17314.4 270 / 101025.310.8 18.016.3
2017-Mar-26 00:00N 32°24' W 046°00'30514.5 050 / 131026.3 5.4 16.012.4
2017-Mar-25 03:00N 32°54' W 040°00'10 5.0 110 / 121024.3 18.014.6
2017-Mar-25 01:00N 32°54' W 039°48'22217.1 140 / 141026.310.8 17.013.5
2017-Mar-24 12:00N 33°12' W 035°24'63317.6 260 / 101030.310.8 22.018.9
2017-Mar-23 00:00N 34°30' W 022°48'21821.8 310 / 161030.3
2017-Mar-22 14:00N 35°24' W 018°30'44417.1 350 / 141023.310.8 17.015.318.0
2017-Mar-21 12:00N 40°24' W 011°36'42517.7 360 / 141025.310.8
2017-Mar-20 12:00N 46°48' W 007°24'21815.9 240 / 251012.310.8 10.0 7.911.0
2017-Mar-19 22:18N 49°37' W 003°57'1216.0
2017-Mar-19 21:32N 49°43' W 003°40'1616.3
2017-Mar-19 20:33N 49°51' W 003°19'1716.8
2017-Mar-19 19:33N 49°58' W 002°55'3617.7
2017-Mar-19 17:33N 50°00' W 001°60'1918.8
2017-Mar-19 16:34N 49°53' W 001°33'1918.5
2017-Mar-19 15:33N 49°46' W 001°06'1717.3
2017-Mar-19 14:33N 49°40' W 000°41'1716.6
2017-Mar-19 13:34N 49°35' W 000°17'1313.4
2017-Mar-19 12:33N 49°30' E 000°02'5 4.6
2017-Mar-19 11:32N 49°28' E 000°09'0 0.0
2017-Mar-19 10:32N 49°28' E 000°09'0 0.0
2017-Mar-19 09:32N 49°28' E 000°09'0 0.0
2017-Mar-19 08:32N 49°28' E 000°09'0 0.0
2017-Mar-19 07:32N 49°28' E 000°09'0 0.0
2017-Mar-19 06:32N 49°28' E 000°09'0 0.0
2017-Mar-19 05:32N 49°28' E 000°09'0 0.0
2017-Mar-19 04:32N 49°28' E 000°09'0 0.0
2017-Mar-19 03:32N 49°28' E 000°09'0 0.0
2017-Mar-19 02:32N 49°28' E 000°09'0 0.0
2017-Mar-19 01:32N 49°28' E 000°09'0 0.0
2017-Mar-19 00:32N 49°28' E 000°09'0 0.0
2017-Mar-18 23:32N 49°28' E 000°09'0 0.0
2017-Mar-18 22:32N 49°28' E 000°09'0 0.0
2017-Mar-18 21:32N 49°28' E 000°09'0 0.0
2017-Mar-18 20:32N 49°28' E 000°09'0 0.0
2017-Mar-18 19:32N 49°28' E 000°09'0 0.0
2017-Mar-18 18:32N 49°28' E 000°09'0 0.0
2017-Mar-18 17:32N 49°28' E 000°09'0 0.0
2017-Mar-18 16:32N 49°28' E 000°09'0 0.0
2017-Mar-18 15:32N 49°28' E 000°09'0 0.0
2017-Mar-18 14:33N 49°28' E 000°09'0 0.0
2017-Mar-18 13:33N 49°28' E 000°09'2 1.8
2017-Mar-18 12:33N 49°29' E 000°06'9 9.5
2017-Mar-18 11:33N 49°34' W 000°06'9 8.9
2017-Mar-18 10:33N 49°42' W 000°08'1010.1
2017-Mar-18 09:33N 49°52' W 000°08'1010.2
2017-Mar-18 08:33N 50°03' W 000°06'1110.6
2017-Mar-18 07:33N 50°13' W 000°07'1010.3
2017-Mar-18 06:33N 50°23' W 000°06'9 9.5
2017-Mar-18 05:33N 50°30' E 000°04'1010.3
2017-Mar-18 04:33N 50°34' E 000°19'10 9.3
2017-Mar-18 03:30N 50°36' E 000°34'9 9.1
2017-Mar-18 02:33N 50°41' E 000°45'9 9.0
2017-Mar-18 01:33N 50°46' E 000°57'9 8.7
2017-Mar-18 00:31N 50°51' E 001°09'612.1
2017-Mar-18 00:00N 50°54' E 001°18'3 6.6 240 / 201010.3 5.4 6.0 3.6
2017-Mar-17 23:33N 50°57' E 001°20'1111.1
2017-Mar-17 22:33N 51°04' E 001°32'1211.8
2017-Mar-17 21:33N 51°13' E 001°45'1110.9
2017-Mar-17 20:33N 51°23' E 001°54'1010.0
2017-Mar-17 19:34N 51°31' E 002°03'9 9.5
2017-Mar-17 18:33N 51°38' E 002°13'9 9.5
2017-Mar-17 17:33N 51°45' E 002°23'9011.1
2017-Mar-17 09:30N 52°55' E 003°55'1616.4
2017-Mar-17 08:31N 53°06' E 004°15'3015.2
2017-Mar-17 06:32N 53°30' E 004°44'  

Dump ship's entire track history